Time;durP1;ratioP1;P1;durP2;ratioP2;P2;SDS_P1;SDS_P2;PMS_P1;PMS_P2;Temp;Humidity;BMP_temperature;BMP_pressure;BME280_temperature;BME280_humidity;BME280_pressure;Samples;Min_cycle;Max_cycle;Signal;HPM_P1;HPM_P2
2022/10/25 00:03:15;;;;;;;2.27;1.13;;;13.60;1.00;;;;;;4994940;28;20416;-88
2022/10/25 00:09:09;;;;;;;5.23;1.67;;;13.60;1.00;;;;;;4995034;28;20408;-88
2022/10/25 00:18:19;;;;;;;2.30;1.30;;;13.50;1.00;;;;;;4994851;28;20460;-88
2022/10/25 00:20:52;;;;;;;5.03;1.50;;;13.50;1.00;;;;;;4968901;28;20445;-89
2022/10/25 00:23:21;;;;;;;1.80;1.23;;;13.60;1.00;;;;;;4990871;28;20185;-89
2022/10/25 00:29:09;;;;;;;7.97;1.10;;;13.50;1.00;;;;;;4994616;28;20452;-88
2022/10/25 00:34:56;;;;;;;4.10;1.33;;;13.50;1.00;;;;;;5057019;28;20471;-88
2022/10/25 00:38:02;;;;;;;3.23;1.60;;;13.50;1.00;;;;;;5067188;28;20421;-88
2022/10/25 00:40:39;;;;;;;3.53;1.60;;;13.40;1.00;;;;;;5062121;28;20203;-88
2022/10/25 00:43:43;;;;;;;4.77;1.43;;;13.30;1.00;;;;;;5074089;28;20826;-88
2022/10/25 00:46:29;;;;;;;2.30;1.73;;;13.30;1.00;;;;;;4977701;28;20468;-88
2022/10/25 00:49:17;;;;;;;3.63;1.40;;;13.20;1.00;;;;;;4977818;28;20421;-85
2022/10/25 00:55:17;;;;;;;5.20;1.40;;;13.20;1.00;;;;;;4992944;28;20422;-84
2022/10/25 00:58:13;;;;;;;2.70;1.43;;;13.30;1.00;;;;;;4977049;28;20458;-85
2022/10/25 01:01:27;;;;;;;5.17;1.60;;;13.20;1.00;;;;;;4975429;28;20421;-84
2022/10/25 01:04:15;;;;;;;7.07;1.63;;;13.20;1.00;;;;;;4994218;28;20447;-88
2022/10/25 01:07:21;;;;;;;5.10;1.63;;;13.20;1.00;;;;;;4992762;28;20486;-88
2022/10/25 01:16:51;;;;;;;2.67;1.20;;;13.00;1.00;;;;;;4993266;28;20535;-88
2022/10/25 01:26:26;;;;;;;7.03;1.37;;;12.80;1.00;;;;;;5070655;28;20545;-85
2022/10/25 01:29:15;;;;;;;2.50;1.00;;;12.80;1.00;;;;;;5071974;28;20420;-85
2022/10/25 01:35:46;;;;;;;4.93;1.93;;;12.80;1.00;;;;;;5066452;28;20466;-85
2022/10/25 01:41:57;;;;;;;6.10;1.30;;;12.80;2.90;;;;;;5065174;28;20472;-85
2022/10/25 01:44:57;;;;;;;12.70;1.40;;;12.80;2.90;;;;;;5062434;28;20405;-85
2022/10/25 01:51:04;;;;;;;2.50;1.00;;;12.90;3.20;;;;;;5065630;28;20843;-85
2022/10/25 01:53:57;;;;;;;1.53;1.43;;;13.00;4.70;;;;;;5073788;28;20504;-85
2022/10/25 01:57:09;;;;;;;1.93;1.07;;;13.00;4.20;;;;;;5073752;28;20530;-85
2022/10/25 01:59:45;;;;;;;4.50;1.43;;;13.20;3.00;;;;;;5068657;28;20414;-85
2022/10/25 02:05:49;;;;;;;5.07;1.70;;;13.40;1.00;;;;;;5065019;28;20413;-89
2022/10/25 02:09:05;;;;;;;8.43;1.87;;;13.40;1.00;;;;;;5074252;28;20404;-89
2022/10/25 02:11:32;;;;;;;14.23;1.50;;;13.60;1.00;;;;;;5065871;28;20433;-89
2022/10/25 02:27:27;;;;;;;5.50;1.20;;;13.20;1.00;;;;;;5074072;28;20430;-89
2022/10/25 02:33:36;;;;;;;7.30;1.10;;;13.00;1.00;;;;;;5073578;28;20436;-89
2022/10/25 02:46:13;;;;;;;3.50;1.43;;;12.90;1.00;;;;;;5058100;28;20516;-88
2022/10/25 02:48:57;;;;;;;8.10;1.63;;;12.90;1.00;;;;;;5062396;28;20429;-88
2022/10/25 02:51:27;;;;;;;7.80;2.20;;;12.80;2.30;;;;;;5058580;28;20811;-85
2022/10/25 02:53:53;;;;;;;7.23;1.23;;;12.80;1.00;;;;;;5072785;28;20423;-86
2022/10/25 02:59:45;;;;;;;6.73;1.30;;;12.80;1.00;;;;;;5072908;28;20492;-85
2022/10/25 03:02:45;;;;;;;9.10;1.07;;;12.70;1.00;;;;;;5066182;28;20456;-85
2022/10/25 03:09:03;;;;;;;6.87;1.33;;;12.60;1.00;;;;;;5072594;28;20432;-85
2022/10/25 03:15:03;;;;;;;5.30;1.03;;;12.50;1.00;;;;;;5052716;28;20413;-85
2022/10/25 03:17:57;;;;;;;5.60;1.13;;;12.40;1.00;;;;;;5055000;28;20434;-85
2022/10/25 03:31:09;;;;;;;20.23;1.63;;;12.30;1.60;;;;;;5067157;28;20745;-89
2022/10/25 03:33:40;;;;;;;9.57;1.73;;;12.20;5.10;;;;;;5071973;28;20433;-89
2022/10/25 03:46:11;;;;;;;10.10;1.70;;;12.00;6.20;;;;;;5069480;28;20480;-85
2022/10/25 03:49:15;;;;;;;9.23;1.30;;;12.00;7.40;;;;;;5055355;28;21142;-85
2022/10/25 03:51:57;;;;;;;18.57;1.30;;;12.00;10.00;;;;;;5055266;28;20205;-85
2022/10/25 03:54:27;;;;;;;3.63;1.60;;;12.00;11.00;;;;;;5073298;28;20789;-85
2022/10/25 03:57:09;;;;;;;9.80;1.53;;;12.00;11.90;;;;;;5075112;28;20896;-84
2022/10/25 04:03:27;;;;;;;9.67;1.77;;;12.00;15.80;;;;;;5065035;28;20428;-85
2022/10/25 04:05:57;;;;;;;4.80;1.30;;;11.90;18.30;;;;;;5055351;28;20430;-86
2022/10/25 04:08:57;;;;;;;10.50;1.30;;;11.90;20.50;;;;;;5068832;28;20437;-84
2022/10/25 04:14:44;;;;;;;6.87;1.97;;;11.80;23.40;;;;;;5056030;28;20393;-85
2022/10/25 04:17:10;;;;;;;9.27;1.60;;;11.80;22.70;;;;;;5071901;28;20429;-85
2022/10/25 04:23:27;;;;;;;4.80;1.43;;;11.70;19.90;;;;;;5067208;28;20178;-89
2022/10/25 04:26:28;;;;;;;3.77;1.53;;;11.70;19.90;;;;;;5063914;28;20474;-88
2022/10/25 04:33:03;;;;;;;12.57;1.50;;;11.60;19.70;;;;;;5057642;28;20452;-89
2022/10/25 04:35:58;;;;;;;5.03;1.53;;;11.50;18.50;;;;;;5074997;28;20668;-86
2022/10/25 04:41:57;;;;;;;9.10;1.80;;;11.40;19.70;;;;;;5061629;28;20424;-85
2022/10/25 04:44:51;;;;;;;12.13;1.70;;;11.40;22.10;;;;;;5074095;28;20852;-86
2022/10/25 04:50:38;;;;;;;12.30;2.20;;;11.40;25.00;;;;;;5075771;28;20750;-89
2022/10/25 04:53:05;;;;;;;9.03;1.87;;;11.30;26.70;;;;;;5066967;28;20422;-90
2022/10/25 04:55:39;;;;;;;5.63;2.00;;;11.30;30.90;;;;;;5062367;28;20263;-89
2022/10/25 04:58:57;;;;;;;8.47;1.73;;;11.30;29.40;;;;;;5066173;28;20452;-89
2022/10/25 05:01:39;;;;;;;8.50;1.70;;;11.30;28.80;;;;;;5064908;28;20430;-90
2022/10/25 05:04:14;;;;;;;10.43;1.70;;;11.20;30.40;;;;;;5066042;28;20929;-89
2022/10/25 05:06:57;;;;;;;11.73;1.50;;;11.20;30.30;;;;;;5070532;28;21105;-89
2022/10/25 05:09:57;;;;;;;7.90;2.07;;;11.20;33.40;;;;;;5055149;28;20414;-89
2022/10/25 05:12:23;;;;;;;17.20;2.40;;;11.10;34.80;;;;;;5064953;28;20422;-89
2022/10/25 05:14:57;;;;;;;13.27;2.00;;;11.10;34.70;;;;;;5073374;28;20761;-89
2022/10/25 05:18:09;;;;;;;3.57;1.43;;;11.10;35.00;;;;;;5074525;28;20928;-89
2022/10/25 05:21:21;;;;;;;11.00;1.77;;;11.00;33.70;;;;;;5074925;28;20445;-89
2022/10/25 05:23:59;;;;;;;4.30;1.47;;;10.90;42.70;;;;;;5067693;28;20450;-89
2022/10/25 05:34:15;;;;;;;7.27;2.30;;;11.00;42.70;;;;;;5068521;28;20408;-89
2022/10/25 05:37:31;;;;;;;7.73;1.67;;;11.10;43.00;;;;;;5065575;28;20444;-84
2022/10/25 05:40:27;;;;;;;11.53;2.93;;;11.10;42.80;;;;;;5054116;28;20411;-86
2022/10/25 05:43:09;;;;;;;12.23;2.33;;;11.00;42.70;;;;;;5057051;28;20430;-84
2022/10/25 05:45:59;;;;;;;9.87;2.20;;;10.90;42.70;;;;;;5068825;28;20987;-86
2022/10/25 05:48:52;;;;;;;4.63;1.90;;;10.90;42.60;;;;;;5058910;28;20427;-84
2022/10/25 05:51:39;;;;;;;10.70;1.90;;;10.90;42.60;;;;;;5071085;28;20452;-88
2022/10/25 05:54:27;;;;;;;7.40;2.20;;;10.80;42.60;;;;;;5069712;28;20860;-88
2022/10/25 05:57:27;;;;;;;20.17;2.20;;;10.80;42.60;;;;;;5071564;28;20438;-89
2022/10/25 06:00:27;;;;;;;7.90;2.40;;;10.80;42.60;;;;;;5074134;28;20511;-88
2022/10/25 06:03:27;;;;;;;8.60;2.40;;;10.80;42.60;;;;;;5083190;28;20781;-88
2022/10/25 06:06:15;;;;;;;7.33;2.20;;;10.80;42.60;;;;;;5073259;28;20532;-89
2022/10/25 06:09:16;;;;;;;8.60;2.00;;;10.80;42.60;;;;;;5061646;28;20452;-88
2022/10/25 06:11:57;;;;;;;5.87;2.40;;;10.80;42.60;;;;;;5071149;28;20927;-89
2022/10/25 06:14:57;;;;;;;7.50;2.60;;;10.90;42.70;;;;;;5070957;28;21043;-89
2022/10/25 06:17:27;;;;;;;5.50;2.03;;;10.80;42.70;;;;;;5059898;28;20517;-88
2022/10/25 06:19:57;;;;;;;7.70;2.03;;;10.90;42.90;;;;;;5061560;28;20490;-88
2022/10/25 06:23:15;;;;;;;6.20;2.20;;;10.90;42.70;;;;;;5072463;28;20433;-88
2022/10/25 06:25:59;;;;;;;12.67;2.53;;;11.00;42.80;;;;;;5061671;28;20437;-85
2022/10/25 06:28:53;;;;;;;9.37;2.70;;;11.00;42.90;;;;;;5068688;28;20440;-87
2022/10/25 06:31:21;;;;;;;6.43;3.07;;;11.10;42.90;;;;;;5065451;28;20416;-76
2022/10/25 06:33:59;;;;;;;13.63;3.20;;;11.10;42.90;;;;;;5065324;28;20512;-80
2022/10/25 06:36:51;;;;;;;19.50;2.70;;;11.20;47.00;;;;;;5065261;28;20435;-79
2022/10/25 06:39:27;;;;;;;8.00;3.00;;;11.20;43.00;;;;;;5065475;28;20433;-79
2022/10/25 06:41:53;;;;;;;7.97;2.70;;;11.30;43.20;;;;;;5073307;28;20445;-79
2022/10/25 06:44:39;;;;;;;7.93;2.60;;;11.30;48.80;;;;;;5069751;28;20448;-79
2022/10/25 06:47:15;;;;;;;13.40;2.70;;;11.30;56.80;;;;;;5072265;28;20195;-79
2022/10/25 06:50:03;;;;;;;10.47;2.20;;;11.40;57.90;;;;;;5070761;28;20425;-79
2022/10/25 06:52:57;;;;;;;8.27;2.80;;;11.40;61.30;;;;;;5056366;28;20937;-78
2022/10/25 06:55:27;;;;;;;8.53;2.43;;;11.50;76.30;;;;;;5071198;28;20802;-77
2022/10/25 06:57:58;;;;;;;14.43;3.10;;;11.60;81.90;;;;;;5072726;28;20976;-78
2022/10/25 07:00:27;;;;;;;10.77;3.00;;;11.60;84.60;;;;;;5058165;28;20468;-78
2022/10/25 07:02:55;;;;;;;10.03;2.60;;;11.70;87.20;;;;;;5058046;28;20445;-78
2022/10/25 07:05:21;;;;;;;7.93;3.30;;;11.80;90.10;;;;;;5069242;28;20505;-77
2022/10/25 07:07:48;;;;;;;7.67;3.00;;;11.80;91.40;;;;;;5067410;28;20460;-79
2022/10/25 07:10:27;;;;;;;10.13;4.33;;;12.00;91.40;;;;;;5076567;28;20407;-79
2022/10/25 07:12:57;;;;;;;14.43;3.33;;;12.10;91.00;;;;;;5071343;28;20909;-79
2022/10/25 07:15:27;;;;;;;10.23;4.37;;;12.10;89.30;;;;;;5072223;28;20917;-79
2022/10/25 07:17:53;;;;;;;14.37;3.50;;;12.20;90.00;;;;;;5070360;28;21015;-79
2022/10/25 07:20:21;;;;;;;14.13;3.60;;;12.30;91.00;;;;;;5076358;28;20431;-79
2022/10/25 07:22:57;;;;;;;12.30;3.40;;;12.30;90.10;;;;;;5068024;28;21004;-78
2022/10/25 07:25:23;;;;;;;16.23;2.93;;;12.50;88.30;;;;;;5071784;28;20946;-78
2022/10/25 07:27:51;;;;;;;14.10;3.30;;;12.60;81.30;;;;;;5071655;28;20456;-77
2022/10/25 07:30:27;;;;;;;11.63;3.20;;;12.60;78.20;;;;;;5059175;28;20251;-77
2022/10/25 07:32:53;;;;;;;13.03;3.37;;;12.70;77.30;;;;;;5069846;28;20993;-77
2022/10/25 07:35:21;;;;;;;15.27;3.60;;;12.70;73.80;;;;;;5069612;28;20512;-77
2022/10/25 07:37:57;;;;;;;10.10;2.80;;;12.80;65.50;;;;;;5071465;28;20642;-79
2022/10/25 07:40:23;;;;;;;9.37;2.77;;;12.90;55.40;;;;;;5073781;28;20403;-80
2022/10/25 07:42:49;;;;;;;11.33;3.20;;;12.90;48.10;;;;;;5064218;28;20422;-79
2022/10/25 07:45:22;;;;;;;9.33;3.83;;;13.00;44.60;;;;;;5060389;28;20183;-79
2022/10/25 07:47:57;;;;;;;11.00;3.40;;;13.10;44.70;;;;;;5068903;28;20200;-79
2022/10/25 07:50:51;;;;;;;10.20;3.13;;;13.20;44.70;;;;;;5058003;28;20934;-79
2022/10/25 07:53:17;;;;;;;8.63;2.70;;;13.30;45.10;;;;;;5063286;28;20496;-79
2022/10/25 07:55:53;;;;;;;13.63;3.20;;;13.40;45.10;;;;;;5066107;28;20425;-78
2022/10/25 07:58:27;;;;;;;9.80;2.77;;;13.60;45.10;;;;;;5066888;28;20833;-79
2022/10/25 08:01:04;;;;;;;4.80;2.47;;;14.00;34.70;;;;;;5075732;28;20424;-79
2022/10/25 08:03:31;;;;;;;6.57;2.43;;;14.40;21.80;;;;;;5068781;28;20948;-78
2022/10/25 08:05:58;;;;;;;4.13;2.37;;;14.60;6.40;;;;;;5054566;28;20441;-79
2022/10/25 08:08:24;;;;;;;6.90;2.10;;;14.60;1.00;;;;;;5069362;28;20392;-78
2022/10/25 08:10:50;;;;;;;8.73;2.60;;;14.70;1.00;;;;;;5062296;28;20531;-79
2022/10/25 08:13:39;;;;;;;4.07;2.57;;;14.90;1.00;;;;;;5070598;28;20803;-79
2022/10/25 08:16:06;;;;;;;10.00;2.73;;;14.90;1.00;;;;;;5061448;28;20423;-78
2022/10/25 08:18:32;;;;;;;13.33;2.60;;;14.90;1.00;;;;;;5066683;28;21094;-78
2022/10/25 08:21:15;;;;;;;12.27;3.40;;;15.00;1.00;;;;;;5055545;28;20425;-78
2022/10/25 08:23:51;;;;;;;3.23;2.10;;;15.20;1.00;;;;;;5068960;28;20475;-78
2022/10/25 08:26:33;;;;;;;11.33;2.50;;;15.30;1.00;;;;;;5064368;28;20993;-79
2022/10/25 08:29:10;;;;;;;3.83;2.20;;;15.40;1.00;;;;;;5068578;28;20521;-79
2022/10/25 08:31:45;;;;;;;9.83;2.70;;;15.40;1.00;;;;;;5068553;28;20389;-79
2022/10/25 08:34:15;;;;;;;16.20;2.57;;;15.40;1.00;;;;;;5062295;28;20464;-79
2022/10/25 08:36:57;;;;;;;12.97;3.03;;;15.50;1.00;;;;;;5069639;28;20388;-79
2022/10/25 08:39:27;;;;;;;10.90;2.77;;;15.60;1.00;;;;;;5063246;28;20408;-78
2022/10/25 08:41:59;;;;;;;8.17;3.03;;;15.80;1.00;;;;;;5068454;28;20796;-79
2022/10/25 08:44:57;;;;;;;5.60;2.40;;;15.90;1.00;;;;;;5068300;28;20425;-78
2022/10/25 08:47:28;;;;;;;6.00;2.60;;;16.00;1.00;;;;;;5061807;28;20428;-78
2022/10/25 08:50:16;;;;;;;6.90;2.83;;;16.10;1.00;;;;;;5072782;28;20399;-77
2022/10/25 08:52:52;;;;;;;7.57;2.53;;;15.90;1.00;;;;;;5064219;28;20390;-82
2022/10/25 08:55:40;;;;;;;11.70;2.63;;;15.90;1.00;;;;;;5073241;28;21080;-82
2022/10/25 08:58:38;;;;;;;8.80;2.40;;;16.00;1.00;;;;;;5072173;28;20777;-83
2022/10/25 09:01:28;;;;;;;8.93;2.60;;;16.20;1.00;;;;;;5066965;28;20417;-83
2022/10/25 09:03:55;;;;;;;11.00;2.70;;;16.10;1.00;;;;;;5062392;28;20388;-82
2022/10/25 09:06:53;;;;;;;3.20;1.80;;;16.30;1.00;;;;;;5075117;28;20429;-83
2022/10/25 09:09:37;;;;;;;8.60;3.33;;;16.30;1.00;;;;;;5064820;28;20428;-82
2022/10/25 09:12:33;;;;;;;9.90;2.50;;;16.40;1.00;;;;;;5073075;28;20436;-82
2022/10/25 09:15:13;;;;;;;13.33;2.43;;;16.60;1.00;;;;;;5074279;28;20396;-83
2022/10/25 09:17:53;;;;;;;6.77;2.73;;;16.80;1.00;;;;;;5056415;28;20434;-82
2022/10/25 09:20:30;;;;;;;8.47;2.70;;;17.00;1.00;;;;;;5070801;28;20411;-86
2022/10/25 09:23:08;;;;;;;8.00;2.30;;;17.20;1.00;;;;;;5054513;28;20753;-83
2022/10/25 09:26:06;;;;;;;6.00;2.47;;;17.40;1.00;;;;;;5068013;28;20409;-84
2022/10/25 09:29:04;;;;;;;10.33;2.40;;;17.50;1.00;;;;;;5066594;28;20437;-84
2022/10/25 09:31:36;;;;;;;6.20;2.53;;;17.50;1.00;;;;;;5065524;28;20496;-83
2022/10/25 09:34:39;;;;;;;9.00;2.13;;;17.50;1.00;;;;;;5067856;28;20965;-83
2022/10/25 09:37:45;;;;;;;8.37;2.37;;;17.50;1.00;;;;;;5067372;28;20457;-83
2022/10/25 09:40:27;;;;;;;7.20;2.80;;;17.40;1.00;;;;;;5069839;28;20428;-77
2022/10/25 09:43:16;;;;;;;3.83;2.10;;;17.40;1.00;;;;;;5059675;28;20411;-77
2022/10/25 09:46:15;;;;;;;7.10;2.73;;;17.50;1.00;;;;;;5067864;28;20463;-78
2022/10/25 09:48:54;;;;;;;11.30;2.60;;;17.70;1.00;;;;;;5057891;28;20419;-77
2022/10/25 09:52:01;;;;;;;9.33;2.70;;;17.80;1.00;;;;;;5065763;28;20429;-77
2022/10/25 09:55:20;;;;;;;8.07;2.47;;;18.00;1.00;;;;;;5067800;28;20441;-83
2022/10/25 09:58:04;;;;;;;13.70;3.03;;;18.00;1.00;;;;;;4925116;29;20426;-83
2022/10/25 10:00:38;;;;;;;9.17;2.40;;;18.00;1.00;;;;;;4933546;29;20449;-83
2022/10/25 10:03:28;;;;;;;12.60;3.60;;;18.10;1.00;;;;;;4922250;29;20422;-83
2022/10/25 10:06:34;;;;;;;9.10;2.57;;;18.10;1.00;;;;;;4934596;29;20441;-83
2022/10/25 10:09:22;;;;;;;4.13;2.20;;;18.10;1.00;;;;;;4902863;29;20494;-83
2022/10/25 10:11:53;;;;;;;10.30;2.20;;;18.20;1.00;;;;;;4902855;29;20469;-77
2022/10/25 10:14:32;;;;;;;9.67;2.30;;;18.40;1.00;;;;;;4906223;29;20516;-77
2022/10/25 10:17:05;;;;;;;5.23;2.20;;;18.50;1.00;;;;;;4909173;29;20542;-78
2022/10/25 10:19:31;;;;;;;7.03;1.90;;;18.60;1.00;;;;;;4896865;29;20547;-77
2022/10/25 10:22:12;;;;;;;14.53;2.47;;;18.60;1.00;;;;;;4888302;29;20529;-77
2022/10/25 10:24:41;;;;;;;8.47;2.00;;;18.60;1.00;;;;;;4901345;29;20199;-79
2022/10/25 10:27:19;;;;;;;3.33;1.63;;;18.50;1.00;;;;;;4883683;29;20800;-78
2022/10/25 10:30:07;;;;;;;11.03;2.20;;;18.50;1.00;;;;;;4895971;29;20575;-77
2022/10/25 10:32:38;;;;;;;8.73;2.17;;;18.50;1.00;;;;;;4911487;29;20430;-76
2022/10/25 10:35:33;;;;;;;3.90;1.60;;;18.30;1.00;;;;;;4971257;28;20434;-77
2022/10/25 10:38:33;;;;;;;6.27;1.83;;;18.30;1.00;;;;;;5011554;28;20422;-78
2022/10/25 10:41:23;;;;;;;7.83;1.90;;;18.40;1.00;;;;;;5015704;28;20430;-78
2022/10/25 10:44:11;;;;;;;11.93;2.20;;;18.60;1.00;;;;;;5049202;28;20403;-78
2022/10/25 10:46:45;;;;;;;5.50;1.47;;;18.60;1.00;;;;;;5063151;28;20808;-78
2022/10/25 10:49:36;;;;;;;8.27;1.73;;;18.70;1.00;;;;;;5074297;28;20419;-78
2022/10/25 10:52:03;;;;;;;2.93;1.57;;;18.80;1.00;;;;;;5057092;28;20424;-78
2022/10/25 10:54:37;;;;;;;6.13;1.77;;;18.70;1.00;;;;;;5062396;28;20452;-77
2022/10/25 10:57:06;;;;;;;15.43;1.80;;;18.40;1.00;;;;;;5066116;28;20421;-83
2022/10/25 10:59:39;;;;;;;5.73;1.70;;;18.60;1.00;;;;;;5071771;28;20419;-84
2022/10/25 11:02:39;;;;;;;4.80;2.20;;;18.70;1.00;;;;;;5071022;28;20440;-83
2022/10/25 11:05:57;;;;;;;7.27;1.70;;;18.80;1.00;;;;;;4995096;28;20444;-83
2022/10/25 11:08:34;;;;;;;9.73;1.50;;;18.70;1.00;;;;;;4995325;28;20436;-84
2022/10/25 11:11:16;;;;;;;6.77;1.33;;;18.50;1.00;;;;;;4995637;28;20409;-83
2022/10/25 11:13:55;;;;;;;10.33;1.47;;;18.60;1.00;;;;;;4995910;28;20408;-83
2022/10/25 11:17:15;;;;;;;2.30;1.37;;;18.60;1.00;;;;;;4994915;28;20912;-83
2022/10/25 11:20:10;;;;;;;3.73;1.10;;;18.80;1.00;;;;;;4994763;28;20843;-82
2022/10/25 11:22:46;;;;;;;3.50;1.10;;;19.20;1.00;;;;;;4994830;28;22519;-82
2022/10/25 11:25:34;;;;;;;6.77;1.20;;;19.40;1.00;;;;;;4995163;28;20526;-81
2022/10/25 11:28:18;;;;;;;1.57;1.03;;;19.70;1.00;;;;;;4999207;28;20486;-79
2022/10/25 11:31:09;;;;;;;2.70;1.07;;;19.90;1.00;;;;;;4990609;28;20428;-79
2022/10/25 11:33:57;;;;;;;4.60;1.30;;;20.10;1.00;;;;;;4976961;28;20425;-79
2022/10/25 11:36:40;;;;;;;7.30;1.30;;;20.20;1.00;;;;;;4978350;28;20937;-79
2022/10/25 11:39:19;;;;;;;5.30;1.10;;;20.40;1.00;;;;;;4994673;28;20428;-79
2022/10/25 11:42:27;;;;;;;3.43;1.20;;;20.50;1.00;;;;;;5031796;28;20484;-79
2022/10/25 11:45:11;;;;;;;1.43;1.00;;;20.30;1.00;;;;;;5064121;28;20483;-79
2022/10/25 11:48:01;;;;;;;2.87;1.20;;;20.00;1.00;;;;;;5069370;28;20452;-79
2022/10/25 11:50:57;;;;;;;4.57;1.07;;;19.90;1.00;;;;;;5066935;28;20422;-79
2022/10/25 11:53:59;;;;;;;1.30;0.90;;;20.10;1.00;;;;;;5062973;28;20457;-78
2022/10/25 11:57:03;;;;;;;4.57;1.23;;;20.10;1.00;;;;;;5070373;28;20412;-79
2022/10/25 11:59:58;;;;;;;4.20;1.30;;;20.00;1.00;;;;;;5070569;28;20942;-79
2022/10/25 12:03:07;;;;;;;6.03;1.10;;;20.00;1.00;;;;;;5062196;28;20817;-78
2022/10/25 12:05:57;;;;;;;3.23;1.13;;;20.00;1.00;;;;;;5055920;28;20446;-79
2022/10/25 12:08:34;;;;;;;3.27;1.10;;;19.80;1.00;;;;;;5055619;28;20492;-78
2022/10/25 12:11:42;;;;;;;3.80;1.60;;;19.70;1.00;;;;;;5071204;28;20421;-79
2022/10/25 12:14:12;;;;;;;9.20;1.07;;;19.40;1.00;;;;;;4993977;28;20433;-78
2022/10/25 12:16:59;;;;;;;2.30;1.37;;;19.30;1.00;;;;;;4993897;28;20405;-78
2022/10/25 12:19:34;;;;;;;2.20;1.20;;;19.20;1.00;;;;;;4994032;28;20433;-78
2022/10/25 12:22:06;;;;;;;2.20;0.90;;;19.20;1.00;;;;;;4992597;28;20522;-78
2022/10/25 12:24:38;;;;;;;5.40;1.33;;;19.50;1.00;;;;;;4993321;28;20456;-78
2022/10/25 12:27:59;;;;;;;5.90;1.23;;;19.70;1.00;;;;;;4995057;28;20998;-88
2022/10/25 12:31:17;;;;;;;4.80;1.13;;;19.90;1.00;;;;;;4994741;28;20436;-88
2022/10/25 12:37:20;;;;;;;8.70;1.20;;;19.60;1.00;;;;;;4933452;29;20576;-88
2022/10/25 12:40:27;;;;;;;2.30;1.00;;;19.90;1.00;;;;;;4917861;29;20459;-88
2022/10/25 12:49:38;;;;;;;5.90;1.80;;;20.70;1.00;;;;;;4954195;28;20456;-87
2022/10/25 12:55:48;;;;;;;2.03;1.43;;;20.30;1.00;;;;;;4984691;28;20421;-87
2022/10/25 12:58:15;;;;;;;4.60;1.57;;;19.80;1.00;;;;;;4988796;28;20511;-78
2022/10/25 13:01:29;;;;;;;4.47;1.57;;;19.60;1.00;;;;;;4985421;28;20383;-78
2022/10/25 13:04:03;;;;;;;11.60;1.70;;;19.60;1.00;;;;;;4932696;29;20436;-78
2022/10/25 13:06:49;;;;;;;3.67;1.40;;;19.50;1.00;;;;;;4929086;29;21069;-80
2022/10/25 13:09:20;;;;;;;5.83;1.03;;;19.50;1.00;;;;;;4936589;29;20438;-81
2022/10/25 13:19:09;;;;;;;2.00;1.20;;;19.10;1.00;;;;;;4961002;28;20463;-87
2022/10/25 13:22:28;;;;;;;3.40;1.27;;;19.00;1.00;;;;;;4954700;29;20507;-88
2022/10/25 13:25:30;;;;;;;4.03;1.33;;;18.80;1.00;;;;;;4974098;28;20405;-86
2022/10/25 13:28:33;;;;;;;2.20;1.10;;;18.80;1.00;;;;;;4901597;29;20464;-83
2022/10/25 13:31:39;;;;;;;4.20;1.50;;;18.90;1.00;;;;;;4901517;29;20442;-81
2022/10/25 13:34:19;;;;;;;2.37;1.20;;;19.00;1.00;;;;;;4915036;29;20566;-82
2022/10/25 13:36:54;;;;;;;6.33;1.40;;;19.20;1.00;;;;;;4885936;29;20998;-82
2022/10/25 13:40:03;;;;;;;10.77;2.00;;;19.30;1.00;;;;;;4902874;28;20432;-82
2022/10/25 13:42:35;;;;;;;4.40;1.70;;;19.50;1.00;;;;;;4983795;28;20439;-80
2022/10/25 13:45:06;;;;;;;3.90;1.70;;;19.50;1.00;;;;;;4971915;28;20418;-81
2022/10/25 13:48:08;;;;;;;5.73;1.37;;;19.60;1.00;;;;;;4957012;28;20475;-80
2022/10/25 13:51:06;;;;;;;2.00;1.23;;;19.80;1.00;;;;;;4970920;28;20537;-82
2022/10/25 13:53:49;;;;;;;3.97;1.30;;;19.70;1.00;;;;;;4982402;28;20425;-81
2022/10/25 13:56:35;;;;;;;2.90;1.30;;;19.70;1.00;;;;;;4989219;28;20529;-81
2022/10/25 13:59:01;;;;;;;2.87;1.23;;;19.70;1.00;;;;;;4992046;28;20791;-82
2022/10/25 14:01:29;;;;;;;4.07;1.73;;;19.80;1.00;;;;;;5017139;28;20400;-82
2022/10/25 14:04:02;;;;;;;3.70;1.30;;;19.90;1.00;;;;;;5059154;28;20450;-81
2022/10/25 14:06:33;;;;;;;3.67;1.37;;;20.00;1.00;;;;;;5071093;28;20453;-81
2022/10/25 14:09:08;;;;;;;7.70;1.27;;;20.10;1.00;;;;;;5056262;28;20381;-81
2022/10/25 14:11:58;;;;;;;9.23;1.60;;;19.90;1.00;;;;;;5053291;28;20863;-81
2022/10/25 14:14:33;;;;;;;6.87;1.30;;;20.00;1.00;;;;;;5070666;28;20420;-81
2022/10/25 14:17:27;;;;;;;9.20;1.40;;;19.80;1.00;;;;;;5072919;28;20957;-80
2022/10/25 14:20:09;;;;;;;3.10;1.23;;;19.70;1.00;;;;;;5077559;28;20411;-81
2022/10/25 14:22:43;;;;;;;5.70;1.33;;;19.80;1.00;;;;;;5073316;28;20420;-82
2022/10/25 14:25:24;;;;;;;7.43;1.30;;;19.80;1.00;;;;;;5058638;28;20448;-82
2022/10/25 14:28:25;;;;;;;4.47;1.63;;;19.70;1.00;;;;;;5066619;28;20713;-87
2022/10/25 14:31:00;;;;;;;12.07;1.57;;;19.80;1.00;;;;;;4985087;28;20484;-87
2022/10/25 14:33:52;;;;;;;3.73;1.60;;;19.90;1.00;;;;;;4992465;28;20466;-87
2022/10/25 14:36:31;;;;;;;4.87;1.50;;;20.00;1.00;;;;;;4992948;28;20410;-87
2022/10/25 14:39:29;;;;;;;6.47;1.03;;;19.80;1.00;;;;;;4992391;28;20442;-86
2022/10/25 14:42:02;;;;;;;7.50;1.30;;;19.50;1.00;;;;;;4983345;28;20388;-87
2022/10/25 14:44:57;;;;;;;5.40;1.70;;;19.40;1.00;;;;;;4992097;28;20425;-87
2022/10/25 14:47:57;;;;;;;5.10;1.33;;;19.40;1.00;;;;;;4992433;28;20471;-87
2022/10/25 14:50:59;;;;;;;4.73;1.07;;;19.30;1.00;;;;;;4972960;28;20422;-87
2022/10/25 14:53:27;;;;;;;3.73;1.37;;;19.20;1.00;;;;;;4956688;28;20924;-86
2022/10/25 14:56:39;;;;;;;3.63;1.33;;;19.20;1.00;;;;;;4989030;28;20421;-87
2022/10/25 14:59:16;;;;;;;2.60;1.20;;;19.30;1.00;;;;;;4969213;28;20494;-85
2022/10/25 15:08:27;;;;;;;1.90;1.10;;;19.40;1.00;;;;;;5042457;28;20546;-83
2022/10/25 15:11:17;;;;;;;3.03;1.07;;;19.50;1.00;;;;;;5059291;28;20784;-88
2022/10/25 15:13:45;;;;;;;4.63;1.10;;;19.40;1.00;;;;;;5061973;28;20397;-82
2022/10/25 15:16:33;;;;;;;2.07;1.00;;;19.40;1.00;;;;;;5065337;28;20940;-84
2022/10/25 15:19:17;;;;;;;2.10;0.70;;;19.30;1.00;;;;;;5061154;28;20996;-82
2022/10/25 15:22:27;;;;;;;5.27;1.40;;;19.20;1.00;;;;;;5061898;28;20439;-82
2022/10/25 15:24:54;;;;;;;5.03;1.10;;;19.00;1.00;;;;;;5061816;28;20482;-83
2022/10/25 15:27:43;;;;;;;3.60;0.90;;;19.10;1.00;;;;;;5062797;28;20445;-83
2022/10/25 15:36:53;;;;;;;5.90;1.30;;;18.80;1.00;;;;;;5068964;28;20565;-88
2022/10/25 15:39:29;;;;;;;2.30;1.00;;;18.80;1.00;;;;;;5073988;28;20915;-86
2022/10/25 15:41:58;;;;;;;0.90;0.70;;;18.80;1.00;;;;;;5074168;28;20182;-88
2022/10/25 15:44:51;;;;;;;2.43;1.10;;;18.80;1.00;;;;;;5076644;28;20447;-81
2022/10/25 15:47:27;;;;;;;3.90;1.23;;;18.70;1.00;;;;;;5066098;28;20453;-80
2022/10/25 15:50:00;;;;;;;1.90;1.20;;;18.60;1.00;;;;;;5072906;28;20428;-79
2022/10/25 15:52:28;;;;;;;4.57;1.47;;;18.50;1.00;;;;;;5058219;28;20429;-80
2022/10/25 15:54:58;;;;;;;6.50;1.10;;;18.30;1.00;;;;;;5068636;28;20400;-80
2022/10/25 15:57:28;;;;;;;6.67;1.00;;;18.20;1.00;;;;;;5061546;28;20785;-80
2022/10/25 15:59:53;;;;;;;2.33;1.20;;;18.00;1.00;;;;;;5074148;28;20907;-88
2022/10/25 16:02:57;;;;;;;4.70;1.10;;;17.90;1.00;;;;;;5075595;28;20397;-88
2022/10/25 16:05:40;;;;;;;12.27;1.17;;;17.80;1.00;;;;;;5063011;28;20649;-88
2022/10/25 16:08:57;;;;;;;5.13;1.53;;;17.70;1.00;;;;;;5072258;28;20993;-89
2022/10/25 16:11:28;;;;;;;6.20;1.30;;;17.40;1.00;;;;;;5062596;28;20524;-89
2022/10/25 16:13:58;;;;;;;2.93;1.60;;;17.20;1.00;;;;;;5075312;28;20766;-82
2022/10/25 16:16:28;;;;;;;6.77;1.10;;;17.00;1.00;;;;;;5072951;28;20958;-81
2022/10/25 16:19:04;;;;;;;1.37;1.13;;;16.90;1.00;;;;;;5074141;28;20416;-81
2022/10/25 16:21:34;;;;;;;3.50;1.23;;;16.70;1.00;;;;;;5065694;28;20982;-80
2022/10/25 16:24:16;;;;;;;5.70;1.30;;;16.50;1.00;;;;;;5071613;28;20943;-81
2022/10/25 16:26:45;;;;;;;5.43;1.23;;;16.40;1.00;;;;;;5071540;28;20427;-80
2022/10/25 16:29:28;;;;;;;1.80;1.10;;;16.20;1.00;;;;;;5059212;28;20461;-89
2022/10/25 16:31:58;;;;;;;4.60;1.30;;;16.00;1.00;;;;;;5056826;28;20952;-88
2022/10/25 16:37:58;;;;;;;3.90;2.17;;;15.70;1.00;;;;;;5055061;28;20397;-87
2022/10/25 16:40:28;;;;;;;9.23;1.30;;;15.50;1.00;;;;;;5054673;28;20388;-88
2022/10/25 16:42:59;;;;;;;5.73;1.50;;;15.40;1.00;;;;;;5054643;28;20393;-91
2022/10/25 16:45:57;;;;;;;4.63;1.20;;;15.30;1.00;;;;;;5068084;28;20427;-88
2022/10/25 16:48:28;;;;;;;3.10;1.37;;;15.20;1.00;;;;;;5064652;28;20545;-88
2022/10/25 16:54:57;;;;;;;5.07;2.07;;;15.00;1.00;;;;;;5074997;28;20396;-86
2022/10/25 16:57:58;;;;;;;12.23;1.63;;;14.80;1.00;;;;;;5075250;28;20417;-91
2022/10/25 17:00:57;;;;;;;6.23;2.13;;;14.70;1.00;;;;;;5074960;28;20414;-83
2022/10/25 17:03:28;;;;;;;7.43;1.87;;;14.60;1.00;;;;;;5073961;28;20418;-85
2022/10/25 17:05:58;;;;;;;7.23;1.80;;;14.50;1.00;;;;;;5056745;28;20433;-84
2022/10/25 17:08:28;;;;;;;12.70;2.10;;;14.40;1.00;;;;;;5056310;28;20461;-87
2022/10/25 17:11:04;;;;;;;12.10;2.40;;;14.50;1.00;;;;;;5052182;28;20479;-88
2022/10/25 17:23:36;;;;;;;8.20;2.37;;;14.60;1.00;;;;;;5055014;28;20804;-88